sensor_id;sensor_type;location;lat;lon;timestamp;pressure;altitude;pressure_sealevel;temperature;humidity
60015;BME280;45867;52.480;6.056;2023-02-20T00:02:16;102413.19;;;4.53;100.00
60015;BME280;45867;52.480;6.056;2023-02-20T00:04:41;102397.81;;;4.50;100.00
60015;BME280;45867;52.480;6.056;2023-02-20T00:07:07;102402.03;;;4.51;100.00
60015;BME280;45867;52.480;6.056;2023-02-20T00:09:32;102385.13;;;4.54;100.00
60015;BME280;45867;52.480;6.056;2023-02-20T00:11:57;102382.28;;;4.55;100.00
60015;BME280;45867;52.480;6.056;2023-02-20T00:14:23;102382.75;;;4.59;100.00
60015;BME280;45867;52.480;6.056;2023-02-20T00:16:48;102397.31;;;4.61;100.00
60015;BME280;45867;52.480;6.056;2023-02-20T00:19:14;102406.25;;;4.67;100.00
60015;BME280;45867;52.480;6.056;2023-02-20T00:21:46;102388.28;;;4.71;100.00
60015;BME280;45867;52.480;6.056;2023-02-20T00:24:13;102386.72;;;4.76;100.00
60015;BME280;45867;52.480;6.056;2023-02-20T00:26:45;102373.97;;;4.73;100.00
60015;BME280;45867;52.480;6.056;2023-02-20T00:29:14;102376.47;;;4.81;100.00
60015;BME280;45867;52.480;6.056;2023-02-20T00:31:39;102383.16;;;4.84;100.00
60015;BME280;45867;52.480;6.056;2023-02-20T00:34:04;102358.25;;;4.80;100.00
60015;BME280;45867;52.480;6.056;2023-02-20T00:36:30;102357.78;;;4.70;100.00
60015;BME280;45867;52.480;6.056;2023-02-20T00:38:56;102356.41;;;4.74;100.00
60015;BME280;45867;52.480;6.056;2023-02-20T00:41:21;102367.44;;;4.90;100.00
60015;BME280;45867;52.480;6.056;2023-02-20T00:43:46;102355.47;;;4.81;100.00
60015;BME280;45867;52.480;6.056;2023-02-20T00:46:15;102352.88;;;4.88;100.00
60015;BME280;45867;52.480;6.056;2023-02-20T00:48:41;102345.81;;;4.88;100.00
60015;BME280;45867;52.480;6.056;2023-02-20T00:51:06;102352.56;;;4.98;100.00
60015;BME280;45867;52.480;6.056;2023-02-20T00:53:31;102346.50;;;4.97;100.00
60015;BME280;45867;52.480;6.056;2023-02-20T00:55:57;102329.94;;;4.97;100.00
60015;BME280;45867;52.480;6.056;2023-02-20T00:58:23;102319.41;;;4.97;100.00
60015;BME280;45867;52.480;6.056;2023-02-20T01:00:48;102326.31;;;5.04;100.00
60015;BME280;45867;52.480;6.056;2023-02-20T01:03:13;102316.41;;;5.00;100.00
60015;BME280;45867;52.480;6.056;2023-02-20T01:05:39;102314.00;;;5.05;100.00
60015;BME280;45867;52.480;6.056;2023-02-20T01:08:05;102320.72;;;5.07;100.00
60015;BME280;45867;52.480;6.056;2023-02-20T01:10:30;102291.59;;;5.09;100.00
60015;BME280;45867;52.480;6.056;2023-02-20T01:12:59;102290.56;;;5.10;100.00
60015;BME280;45867;52.480;6.056;2023-02-20T01:15:24;102287.34;;;5.08;100.00
60015;BME280;45867;52.480;6.056;2023-02-20T01:17:50;102268.97;;;5.08;100.00
60015;BME280;45867;52.480;6.056;2023-02-20T01:20:15;102275.66;;;5.17;100.00
60015;BME280;45867;52.480;6.056;2023-02-20T01:22:41;102270.03;;;5.20;100.00
60015;BME280;45867;52.480;6.056;2023-02-20T01:25:07;102261.06;;;5.08;100.00
60015;BME280;45867;52.480;6.056;2023-02-20T01:27:33;102265.72;;;5.06;100.00
60015;BME280;45867;52.480;6.056;2023-02-20T01:29:58;102257.25;;;5.10;100.00
60015;BME280;45867;52.480;6.056;2023-02-20T01:32:23;102284.34;;;5.11;100.00
60015;BME280;45867;52.480;6.056;2023-02-20T01:34:49;102270.00;;;5.14;100.00
60015;BME280;45867;52.480;6.056;2023-02-20T01:37:15;102273.81;;;5.11;100.00
60015;BME280;45867;52.480;6.056;2023-02-20T01:39:40;102266.50;;;5.06;100.00
60015;BME280;45867;52.480;6.056;2023-02-20T01:42:08;102263.88;;;5.00;100.00
60015;BME280;45867;52.480;6.056;2023-02-20T01:44:35;102250.66;;;4.93;100.00
60015;BME280;45867;52.480;6.056;2023-02-20T01:47:06;102251.28;;;4.95;100.00
60015;BME280;45867;52.480;6.056;2023-02-20T01:49:56;102252.72;;;4.98;100.00
60015;BME280;45867;52.480;6.056;2023-02-20T01:52:26;102245.22;;;4.95;100.00
60015;BME280;45867;52.480;6.056;2023-02-20T01:55:02;102234.66;;;4.88;100.00
60015;BME280;45867;52.480;6.056;2023-02-20T01:57:31;102238.72;;;4.84;100.00
60015;BME280;45867;52.480;6.056;2023-02-20T02:00:07;102233.03;;;4.80;100.00
60015;BME280;45867;52.480;6.056;2023-02-20T02:02:38;102234.66;;;4.81;100.00
60015;BME280;45867;52.480;6.056;2023-02-20T02:05:07;102237.44;;;4.80;100.00
60015;BME280;45867;52.480;6.056;2023-02-20T02:07:34;102231.22;;;4.81;100.00
60015;BME280;45867;52.480;6.056;2023-02-20T02:10:03;102224.94;;;4.82;100.00
60015;BME280;45867;52.480;6.056;2023-02-20T02:12:31;102223.97;;;4.83;100.00
60015;BME280;45867;52.480;6.056;2023-02-20T02:14:56;102217.84;;;4.76;100.00
60015;BME280;45867;52.480;6.056;2023-02-20T02:28:06;102219.53;;;4.90;100.00
60015;BME280;45867;52.480;6.056;2023-02-20T02:33:33;102204.78;;;4.89;100.00
60015;BME280;45867;52.480;6.056;2023-02-20T02:36:21;102203.78;;;4.90;100.00
60015;BME280;45867;52.480;6.056;2023-02-20T02:41:54;102192.06;;;4.86;100.00
60015;BME280;45867;52.480;6.056;2023-02-20T02:44:27;102190.00;;;4.81;100.00
60015;BME280;45867;52.480;6.056;2023-02-20T02:47:26;102173.47;;;4.87;100.00
60015;BME280;45867;52.480;6.056;2023-02-20T02:52:31;102171.16;;;4.71;100.00
60015;BME280;45867;52.480;6.056;2023-02-20T02:55:28;102174.81;;;4.77;100.00
60015;BME280;45867;52.480;6.056;2023-02-20T02:57:54;102167.72;;;4.71;100.00
60015;BME280;45867;52.480;6.056;2023-02-20T03:00:27;102153.38;;;4.66;100.00
60015;BME280;45867;52.480;6.056;2023-02-20T03:05:24;102159.38;;;4.60;100.00
60015;BME280;45867;52.480;6.056;2023-02-20T03:07:55;102173.66;;;4.51;100.00
60015;BME280;45867;52.480;6.056;2023-02-20T03:10:24;102166.84;;;4.57;100.00
60015;BME280;45867;52.480;6.056;2023-02-20T03:12:59;102175.28;;;4.52;100.00
60015;BME280;45867;52.480;6.056;2023-02-20T03:15:32;102177.31;;;4.50;100.00
60015;BME280;45867;52.480;6.056;2023-02-20T03:18:19;102170.66;;;4.54;100.00
60015;BME280;45867;52.480;6.056;2023-02-20T03:20:55;102172.63;;;4.45;100.00
60015;BME280;45867;52.480;6.056;2023-02-20T03:23:25;102174.06;;;4.48;100.00
60015;BME280;45867;52.480;6.056;2023-02-20T03:25:59;102174.22;;;4.47;100.00
60015;BME280;45867;52.480;6.056;2023-02-20T03:28:44;102183.22;;;4.59;100.00
60015;BME280;45867;52.480;6.056;2023-02-20T03:31:16;102166.50;;;4.66;100.00
60015;BME280;45867;52.480;6.056;2023-02-20T03:33:46;102160.66;;;4.71;100.00
60015;BME280;45867;52.480;6.056;2023-02-20T03:36:44;102151.63;;;4.80;100.00
60015;BME280;45867;52.480;6.056;2023-02-20T03:39:33;102155.69;;;4.83;100.00
60015;BME280;45867;52.480;6.056;2023-02-20T03:42:19;102161.59;;;4.98;100.00
60015;BME280;45867;52.480;6.056;2023-02-20T03:45:05;102158.16;;;5.04;100.00
60015;BME280;45867;52.480;6.056;2023-02-20T03:47:35;102162.66;;;5.17;100.00
60015;BME280;45867;52.480;6.056;2023-02-20T03:50:04;102154.38;;;5.20;100.00
60015;BME280;45867;52.480;6.056;2023-02-20T03:52:32;102156.22;;;5.20;100.00
60015;BME280;45867;52.480;6.056;2023-02-20T03:54:57;102157.47;;;5.30;100.00
60015;BME280;45867;52.480;6.056;2023-02-20T03:57:26;102162.34;;;5.40;100.00
60015;BME280;45867;52.480;6.056;2023-02-20T03:59:57;102147.56;;;5.39;100.00
60015;BME280;45867;52.480;6.056;2023-02-20T04:02:28;102139.91;;;5.44;100.00
60015;BME280;45867;52.480;6.056;2023-02-20T04:04:58;102136.47;;;5.50;100.00
60015;BME280;45867;52.480;6.056;2023-02-20T04:07:27;102128.00;;;5.48;100.00
60015;BME280;45867;52.480;6.056;2023-02-20T04:09:56;102127.59;;;5.51;100.00
60015;BME280;45867;52.480;6.056;2023-02-20T04:12:31;102113.03;;;5.55;100.00
60015;BME280;45867;52.480;6.056;2023-02-20T04:15:00;102108.59;;;5.63;100.00
60015;BME280;45867;52.480;6.056;2023-02-20T04:17:31;102082.69;;;5.66;100.00
60015;BME280;45867;52.480;6.056;2023-02-20T04:20:00;102110.00;;;5.72;100.00
60015;BME280;45867;52.480;6.056;2023-02-20T04:22:31;102104.31;;;5.75;100.00
60015;BME280;45867;52.480;6.056;2023-02-20T04:25:13;102098.88;;;5.76;100.00
60015;BME280;45867;52.480;6.056;2023-02-20T04:27:42;102098.66;;;5.78;100.00
60015;BME280;45867;52.480;6.056;2023-02-20T04:30:08;102102.53;;;5.82;100.00
60015;BME280;45867;52.480;6.056;2023-02-20T04:32:34;102096.44;;;5.82;100.00
60015;BME280;45867;52.480;6.056;2023-02-20T04:34:59;102110.22;;;5.90;100.00
60015;BME280;45867;52.480;6.056;2023-02-20T04:37:28;102103.31;;;5.83;100.00
60015;BME280;45867;52.480;6.056;2023-02-20T04:39:53;102108.97;;;5.86;100.00
60015;BME280;45867;52.480;6.056;2023-02-20T04:42:18;102103.72;;;5.93;100.00
60015;BME280;45867;52.480;6.056;2023-02-20T04:44:44;102098.91;;;5.96;100.00
60015;BME280;45867;52.480;6.056;2023-02-20T04:47:15;102096.88;;;5.98;100.00
60015;BME280;45867;52.480;6.056;2023-02-20T04:49:41;102086.13;;;6.00;100.00
60015;BME280;45867;52.480;6.056;2023-02-20T04:52:06;102095.25;;;6.04;100.00
60015;BME280;45867;52.480;6.056;2023-02-20T04:54:32;102111.84;;;6.11;100.00
60015;BME280;45867;52.480;6.056;2023-02-20T04:56:57;102109.81;;;6.13;100.00
60015;BME280;45867;52.480;6.056;2023-02-20T04:59:23;102106.38;;;6.19;100.00
60015;BME280;45867;52.480;6.056;2023-02-20T05:01:50;102099.66;;;6.23;100.00
60015;BME280;45867;52.480;6.056;2023-02-20T05:04:17;102128.81;;;6.29;100.00
60015;BME280;45867;52.480;6.056;2023-02-20T05:06:47;102109.78;;;6.33;100.00
60015;BME280;45867;52.480;6.056;2023-02-20T05:09:13;102113.00;;;6.35;100.00
60015;BME280;45867;52.480;6.056;2023-02-20T05:11:39;102087.91;;;6.26;100.00
60015;BME280;45867;52.480;6.056;2023-02-20T05:14:05;102103.31;;;6.29;100.00
60015;BME280;45867;52.480;6.056;2023-02-20T05:16:30;102103.69;;;6.33;100.00
60015;BME280;45867;52.480;6.056;2023-02-20T05:18:56;102089.91;;;6.37;100.00
60015;BME280;45867;52.480;6.056;2023-02-20T05:21:21;102104.50;;;6.47;100.00
60015;BME280;45867;52.480;6.056;2023-02-20T05:24:06;102089.91;;;6.44;100.00
60015;BME280;45867;52.480;6.056;2023-02-20T05:26:31;102095.56;;;6.48;100.00
60015;BME280;45867;52.480;6.056;2023-02-20T05:28:56;102083.63;;;6.45;100.00
60015;BME280;45867;52.480;6.056;2023-02-20T05:31:22;102092.94;;;6.48;100.00
60015;BME280;45867;52.480;6.056;2023-02-20T05:33:47;102089.69;;;6.45;100.00
60015;BME280;45867;52.480;6.056;2023-02-20T05:36:13;102093.13;;;6.53;100.00
60015;BME280;45867;52.480;6.056;2023-02-20T05:38:38;102089.88;;;6.51;100.00
60015;BME280;45867;52.480;6.056;2023-02-20T05:41:05;102084.41;;;6.52;100.00
60015;BME280;45867;52.480;6.056;2023-02-20T05:43:31;102079.34;;;6.51;100.00
60015;BME280;45867;52.480;6.056;2023-02-20T05:45:56;102086.44;;;6.50;100.00
60015;BME280;45867;52.480;6.056;2023-02-20T05:48:21;102092.09;;;6.54;100.00
60015;BME280;45867;52.480;6.056;2023-02-20T05:50:47;102087.81;;;6.59;100.00
60015;BME280;45867;52.480;6.056;2023-02-20T05:53:15;102061.28;;;6.54;100.00
60015;BME280;45867;52.480;6.056;2023-02-20T05:55:40;102072.63;;;6.61;100.00
60015;BME280;45867;52.480;6.056;2023-02-20T05:58:06;102066.16;;;6.57;100.00
60015;BME280;45867;52.480;6.056;2023-02-20T06:00:31;102061.91;;;6.56;100.00
60015;BME280;45867;52.480;6.056;2023-02-20T06:02:56;102058.88;;;6.53;100.00
60015;BME280;45867;52.480;6.056;2023-02-20T06:05:22;102050.56;;;6.56;100.00
60015;BME280;45867;52.480;6.056;2023-02-20T06:07:48;102061.72;;;6.58;100.00
60015;BME280;45867;52.480;6.056;2023-02-20T06:10:15;102063.28;;;6.65;100.00
60015;BME280;45867;52.480;6.056;2023-02-20T06:12:42;102059.84;;;6.65;100.00
60015;BME280;45867;52.480;6.056;2023-02-20T06:15:07;102059.03;;;6.64;100.00
60015;BME280;45867;52.480;6.056;2023-02-20T06:17:33;102062.88;;;6.62;100.00
60015;BME280;45867;52.480;6.056;2023-02-20T06:19:58;102052.53;;;6.67;100.00
60015;BME280;45867;52.480;6.056;2023-02-20T06:22:24;102068.16;;;6.69;100.00
60015;BME280;45867;52.480;6.056;2023-02-20T06:24:50;102051.50;;;6.68;100.00
60015;BME280;45867;52.480;6.056;2023-02-20T06:27:16;102054.97;;;6.69;100.00
60015;BME280;45867;52.480;6.056;2023-02-20T06:29:41;102051.31;;;6.70;100.00
60015;BME280;45867;52.480;6.056;2023-02-20T06:32:07;102053.78;;;6.64;100.00
60015;BME280;45867;52.480;6.056;2023-02-20T06:34:32;102053.75;;;6.71;100.00
60015;BME280;45867;52.480;6.056;2023-02-20T06:36:59;102033.69;;;6.70;100.00
60015;BME280;45867;52.480;6.056;2023-02-20T06:39:27;102049.31;;;6.65;100.00
60015;BME280;45867;52.480;6.056;2023-02-20T06:41:53;102053.34;;;6.67;100.00
60015;BME280;45867;52.480;6.056;2023-02-20T06:44:18;102048.88;;;6.75;100.00
60015;BME280;45867;52.480;6.056;2023-02-20T06:46:44;102050.09;;;6.72;100.00
60015;BME280;45867;52.480;6.056;2023-02-20T06:49:09;102053.75;;;6.71;100.00
60015;BME280;45867;52.480;6.056;2023-02-20T06:51:34;102068.72;;;6.77;100.00
60015;BME280;45867;52.480;6.056;2023-02-20T06:54:01;102076.38;;;6.85;100.00
60015;BME280;45867;52.480;6.056;2023-02-20T06:56:30;102057.75;;;6.80;100.00
60015;BME280;45867;52.480;6.056;2023-02-20T06:58:57;102066.63;;;6.86;100.00
60015;BME280;45867;52.480;6.056;2023-02-20T07:01:25;102062.78;;;6.82;100.00
60015;BME280;45867;52.480;6.056;2023-02-20T07:03:53;102077.13;;;6.93;100.00
60015;BME280;45867;52.480;6.056;2023-02-20T07:06:23;102072.28;;;6.96;100.00
60015;BME280;45867;52.480;6.056;2023-02-20T07:08:49;102077.78;;;6.88;100.00
60015;BME280;45867;52.480;6.056;2023-02-20T07:11:19;102064.78;;;6.93;100.00
60015;BME280;45867;52.480;6.056;2023-02-20T07:13:45;102063.75;;;6.94;100.00
60015;BME280;45867;52.480;6.056;2023-02-20T07:16:10;102066.94;;;7.03;100.00
60015;BME280;45867;52.480;6.056;2023-02-20T07:18:36;102081.59;;;6.99;100.00
60015;BME280;45867;52.480;6.056;2023-02-20T07:21:01;102080.75;;;6.98;100.00
60015;BME280;45867;52.480;6.056;2023-02-20T07:23:27;102085.03;;;6.99;100.00
60015;BME280;45867;52.480;6.056;2023-02-20T07:25:58;102088.47;;;7.00;100.00
60015;BME280;45867;52.480;6.056;2023-02-20T07:28:23;102074.47;;;6.99;100.00
60015;BME280;45867;52.480;6.056;2023-02-20T07:30:49;102076.31;;;6.99;100.00
60015;BME280;45867;52.480;6.056;2023-02-20T07:33:17;102073.88;;;6.97;100.00
60015;BME280;45867;52.480;6.056;2023-02-20T07:35:43;102071.25;;;6.97;100.00
60015;BME280;45867;52.480;6.056;2023-02-20T07:38:09;102086.81;;;7.05;100.00
60015;BME280;45867;52.480;6.056;2023-02-20T07:40:34;102077.50;;;7.03;100.00
60015;BME280;45867;52.480;6.056;2023-02-20T07:42:59;102074.47;;;6.99;100.00
60015;BME280;45867;52.480;6.056;2023-02-20T07:45:25;102083.38;;;6.98;100.00
60015;BME280;45867;52.480;6.056;2023-02-20T07:47:51;102076.88;;;7.07;100.00
60015;BME280;45867;52.480;6.056;2023-02-20T07:50:17;102083.56;;;7.10;100.00
60015;BME280;45867;52.480;6.056;2023-02-20T07:52:44;102082.31;;;7.13;100.00
60015;BME280;45867;52.480;6.056;2023-02-20T07:55:12;102074.00;;;7.09;100.00
60015;BME280;45867;52.480;6.056;2023-02-20T07:57:39;102089.19;;;7.14;100.00
60015;BME280;45867;52.480;6.056;2023-02-20T08:00:05;102073.38;;;7.14;100.00
60015;BME280;45867;52.480;6.056;2023-02-20T08:02:31;102077.41;;;7.16;100.00
60015;BME280;45867;52.480;6.056;2023-02-20T08:04:56;102075.16;;;7.20;100.00
60015;BME280;45867;52.480;6.056;2023-02-20T08:07:22;102077.97;;;7.25;100.00
60015;BME280;45867;52.480;6.056;2023-02-20T08:09:49;102063.81;;;7.19;100.00
60015;BME280;45867;52.480;6.056;2023-02-20T08:12:18;102062.59;;;7.22;100.00
60015;BME280;45867;52.480;6.056;2023-02-20T08:14:43;102062.75;;;7.27;100.00
60015;BME280;45867;52.480;6.056;2023-02-20T08:17:09;102062.16;;;7.25;100.00
60015;BME280;45867;52.480;6.056;2023-02-20T08:19:36;102072.66;;;7.31;100.00
60015;BME280;45867;52.480;6.056;2023-02-20T08:22:01;102057.47;;;7.27;100.00
60015;BME280;45867;52.480;6.056;2023-02-20T08:24:27;102070.22;;;7.30;100.00
60015;BME280;45867;52.480;6.056;2023-02-20T08:26:52;102067.72;;;7.42;100.00
60015;BME280;45867;52.480;6.056;2023-02-20T08:29:18;102067.72;;;7.42;100.00
60015;BME280;45867;52.480;6.056;2023-02-20T08:31:43;102064.50;;;7.40;100.00
60015;BME280;45867;52.480;6.056;2023-02-20T08:34:08;102080.44;;;7.51;100.00
60015;BME280;45867;52.480;6.056;2023-02-20T08:36:34;102085.75;;;7.45;100.00
60015;BME280;45867;52.480;6.056;2023-02-20T08:39:00;102077.00;;;7.51;100.00
60015;BME280;45867;52.480;6.056;2023-02-20T08:41:27;102070.75;;;7.45;100.00
60015;BME280;45867;52.480;6.056;2023-02-20T08:43:52;102077.00;;;7.51;100.00
60015;BME280;45867;52.480;6.056;2023-02-20T08:46:18;102068.69;;;7.47;100.00
60015;BME280;45867;52.480;6.056;2023-02-20T08:48:43;102078.44;;;7.47;100.00
60015;BME280;45867;52.480;6.056;2023-02-20T08:51:09;102071.72;;;7.51;100.00
60015;BME280;45867;52.480;6.056;2023-02-20T08:53:37;102077.34;;;7.54;100.00
60015;BME280;45867;52.480;6.056;2023-02-20T08:56:03;102068.81;;;7.59;100.00
60015;BME280;45867;52.480;6.056;2023-02-20T08:58:32;102056.69;;;7.51;100.00
60015;BME280;45867;52.480;6.056;2023-02-20T09:00:57;102060.13;;;7.52;100.00
60015;BME280;45867;52.480;6.056;2023-02-20T09:03:23;102062.75;;;7.52;100.00
60015;BME280;45867;52.480;6.056;2023-02-20T09:05:49;102060.94;;;7.52;100.00
60015;BME280;45867;52.480;6.056;2023-02-20T09:08:14;102066.97;;;7.60;100.00
60015;BME280;45867;52.480;6.056;2023-02-20T09:10:40;102059.75;;;7.48;100.00
60015;BME280;45867;52.480;6.056;2023-02-20T09:13:47;102070.09;;;7.50;100.00
60015;BME280;45867;52.480;6.056;2023-02-20T09:16:15;102088.44;;;7.63;100.00
60015;BME280;45867;52.480;6.056;2023-02-20T09:18:42;102077.53;;;7.60;100.00
60015;BME280;45867;52.480;6.056;2023-02-20T09:21:11;102074.53;;;7.56;100.00
60015;BME280;45867;52.480;6.056;2023-02-20T09:23:38;102071.06;;;7.55;100.00
60015;BME280;45867;52.480;6.056;2023-02-20T09:26:04;102061.34;;;7.56;100.00
60015;BME280;45867;52.480;6.056;2023-02-20T09:28:29;102078.31;;;7.60;100.00
60015;BME280;45867;52.480;6.056;2023-02-20T09:30:55;102082.59;;;7.61;100.00
60015;BME280;45867;52.480;6.056;2023-02-20T09:33:22;102077.09;;;7.63;100.00
60015;BME280;45867;52.480;6.056;2023-02-20T09:35:48;102057.94;;;7.49;100.00
60015;BME280;45867;52.480;6.056;2023-02-20T09:38:16;102083.56;;;7.67;100.00
60015;BME280;45867;52.480;6.056;2023-02-20T09:40:42;102072.84;;;7.62;100.00
60015;BME280;45867;52.480;6.056;2023-02-20T09:43:40;102080.69;;;7.68;100.00
60015;BME280;45867;52.480;6.056;2023-02-20T09:46:17;102076.66;;;7.66;100.00
60015;BME280;45867;52.480;6.056;2023-02-20T09:51:32;102067.94;;;7.65;100.00
60015;BME280;45867;52.480;6.056;2023-02-20T09:54:52;102067.75;;;7.67;100.00
60015;BME280;45867;52.480;6.056;2023-02-20T09:56:55;102061.78;;;7.71;100.00
60015;BME280;45867;52.480;6.056;2023-02-20T09:59:32;102052.44;;;7.75;100.00
60015;BME280;45867;52.480;6.056;2023-02-20T10:02:18;102061.22;;;7.69;100.00
60015;BME280;45867;52.480;6.056;2023-02-20T10:04:49;102068.28;;;7.75;100.00
60015;BME280;45867;52.480;6.056;2023-02-20T10:07:28;102054.84;;;7.77;100.00
60015;BME280;45867;52.480;6.056;2023-02-20T10:09:56;102044.84;;;7.86;100.00
60015;BME280;45867;52.480;6.056;2023-02-20T10:20:46;102036.72;;;8.06;100.00
60015;BME280;45867;52.480;6.056;2023-02-20T10:23:34;102062.97;;;8.00;100.00
60015;BME280;45867;52.480;6.056;2023-02-20T10:26:36;102054.97;;;8.07;100.00
60015;BME280;45867;52.480;6.056;2023-02-20T10:29:15;102044.31;;;7.95;100.00
60015;BME280;45867;52.480;6.056;2023-02-20T10:31:49;102045.28;;;8.01;100.00
60015;BME280;45867;52.480;6.056;2023-02-20T10:34:20;102029.00;;;8.04;100.00
60015;BME280;45867;52.480;6.056;2023-02-20T10:36:51;102038.56;;;8.05;100.00
60015;BME280;45867;52.480;6.056;2023-02-20T10:39:20;102048.28;;;8.05;100.00
60015;BME280;45867;52.480;6.056;2023-02-20T10:41:48;102055.63;;;8.03;100.00
60015;BME280;45867;52.480;6.056;2023-02-20T10:44:32;102085.69;;;8.01;100.00
60015;BME280;45867;52.480;6.056;2023-02-20T10:47:47;102094.03;;;7.98;100.00
60015;BME280;45867;52.480;6.056;2023-02-20T10:50:24;102092.34;;;8.04;100.00
60015;BME280;45867;52.480;6.056;2023-02-20T10:56:10;102089.19;;;7.95;100.00
60015;BME280;45867;52.480;6.056;2023-02-20T10:58:41;102092.28;;;7.92;100.00
60015;BME280;45867;52.480;6.056;2023-02-20T11:01:12;102076.81;;;7.96;100.00
60015;BME280;45867;52.480;6.056;2023-02-20T11:03:46;102074.13;;;8.03;100.00
60015;BME280;45867;52.480;6.056;2023-02-20T11:06:16;102076.34;;;7.99;100.00
60015;BME280;45867;52.480;6.056;2023-02-20T11:08:42;102089.72;;;8.04;100.00
60015;BME280;45867;52.480;6.056;2023-02-20T11:11:20;102098.22;;;8.06;100.00
60015;BME280;45867;52.480;6.056;2023-02-20T11:13:46;102086.22;;;8.10;100.00
60015;BME280;45867;52.480;6.056;2023-02-20T11:16:40;102084.56;;;8.16;100.00
60015;BME280;45867;52.480;6.056;2023-02-20T11:19:13;102073.91;;;8.22;100.00
60015;BME280;45867;52.480;6.056;2023-02-20T11:21:45;102071.72;;;8.38;100.00
60015;BME280;45867;52.480;6.056;2023-02-20T11:24:40;102071.91;;;8.43;100.00
60015;BME280;45867;52.480;6.056;2023-02-20T11:27:13;102061.44;;;8.48;100.00
60015;BME280;45867;52.480;6.056;2023-02-20T11:29:47;102065.78;;;8.42;100.00
60015;BME280;45867;52.480;6.056;2023-02-20T11:32:29;102061.34;;;8.43;100.00
60015;BME280;45867;52.480;6.056;2023-02-20T11:37:38;102057.69;;;8.37;100.00
60015;BME280;45867;52.480;6.056;2023-02-20T11:40:13;102064.31;;;8.47;100.00
60015;BME280;45867;52.480;6.056;2023-02-20T11:42:38;102075.59;;;8.54;100.00
60015;BME280;45867;52.480;6.056;2023-02-20T11:45:13;102075.84;;;8.52;100.00
60015;BME280;45867;52.480;6.056;2023-02-20T11:47:39;102061.03;;;8.51;100.00
60015;BME280;45867;52.480;6.056;2023-02-20T11:50:16;102049.19;;;8.35;100.00
60015;BME280;45867;52.480;6.056;2023-02-20T11:53:01;102076.34;;;8.42;100.00
60015;BME280;45867;52.480;6.056;2023-02-20T11:55:30;102043.84;;;8.42;100.00
60015;BME280;45867;52.480;6.056;2023-02-20T11:57:56;102049.06;;;8.49;100.00
60015;BME280;45867;52.480;6.056;2023-02-20T12:00:27;102053.91;;;8.52;100.00
60015;BME280;45867;52.480;6.056;2023-02-20T12:03:13;102059.53;;;8.37;100.00
60015;BME280;45867;52.480;6.056;2023-02-20T12:05:44;102041.22;;;8.42;100.00
60015;BME280;45867;52.480;6.056;2023-02-20T12:11:00;102041.03;;;8.37;100.00
60015;BME280;45867;52.480;6.056;2023-02-20T12:13:29;102040.03;;;8.38;100.00
60015;BME280;45867;52.480;6.056;2023-02-20T12:18:55;102030.25;;;8.38;100.00
60015;BME280;45867;52.480;6.056;2023-02-20T12:26:54;102047.88;;;8.44;100.00
60015;BME280;45867;52.480;6.056;2023-02-20T12:29:45;102050.97;;;8.41;100.00
60015;BME280;45867;52.480;6.056;2023-02-20T12:32:32;102030.91;;;8.34;100.00
60015;BME280;45867;52.480;6.056;2023-02-20T12:35:16;102033.09;;;8.37;100.00
60015;BME280;45867;52.480;6.056;2023-02-20T12:46:28;102019.34;;;8.35;100.00
60015;BME280;45867;52.480;6.056;2023-02-20T12:51:50;102010.59;;;8.34;100.00
60015;BME280;45867;52.480;6.056;2023-02-20T12:54:31;102011.63;;;8.33;100.00
60015;BME280;45867;52.480;6.056;2023-02-20T12:57:14;102017.50;;;8.35;100.00
60015;BME280;45867;52.480;6.056;2023-02-20T12:59:58;102024.91;;;8.45;100.00
60015;BME280;45867;52.480;6.056;2023-02-20T13:02:32;102026.53;;;8.46;100.00
60015;BME280;45867;52.480;6.056;2023-02-20T13:05:01;102026.41;;;8.41;100.00
60015;BME280;45867;52.480;6.056;2023-02-20T13:07:36;102034.53;;;8.39;100.00
60015;BME280;45867;52.480;6.056;2023-02-20T13:10:12;102031.25;;;8.44;100.00
60015;BME280;45867;52.480;6.056;2023-02-20T13:12:38;102025.81;;;8.39;100.00
60015;BME280;45867;52.480;6.056;2023-02-20T13:15:29;102027.94;;;8.49;100.00
60015;BME280;45867;52.480;6.056;2023-02-20T13:20:57;102025.34;;;8.60;100.00
60015;BME280;45867;52.480;6.056;2023-02-20T13:23:29;102013.59;;;8.56;100.00
60015;BME280;45867;52.480;6.056;2023-02-20T13:25:55;102019.47;;;8.58;100.00
60015;BME280;45867;52.480;6.056;2023-02-20T13:28:37;102008.75;;;8.53;100.00
60015;BME280;45867;52.480;6.056;2023-02-20T13:44:47;101972.84;;;8.64;100.00
60015;BME280;45867;52.480;6.056;2023-02-20T13:47:28;101981.47;;;8.59;100.00
60015;BME280;45867;52.480;6.056;2023-02-20T13:49:56;101961.25;;;8.65;100.00
60015;BME280;45867;52.480;6.056;2023-02-20T13:54:55;101950.91;;;8.63;100.00
60015;BME280;45867;52.480;6.056;2023-02-20T13:57:21;101934.91;;;8.58;100.00
60015;BME280;45867;52.480;6.056;2023-02-20T13:59:53;101925.53;;;8.62;100.00
60015;BME280;45867;52.480;6.056;2023-02-20T14:02:21;101956.31;;;8.69;100.00
60015;BME280;45867;52.480;6.056;2023-02-20T14:05:02;101950.91;;;8.63;100.00
60015;BME280;45867;52.480;6.056;2023-02-20T14:07:35;101963.94;;;8.77;100.00
60015;BME280;45867;52.480;6.056;2023-02-20T14:12:39;101963.94;;;8.77;100.00
60015;BME280;45867;52.480;6.056;2023-02-20T14:15:05;101965.63;;;8.71;100.00
60015;BME280;45867;52.480;6.056;2023-02-20T14:17:31;101957.25;;;8.74;100.00
60015;BME280;45867;52.480;6.056;2023-02-20T14:19:59;101956.91;;;8.71;100.00
60015;BME280;45867;52.480;6.056;2023-02-20T14:22:30;101956.66;;;8.72;100.00
60015;BME280;45867;52.480;6.056;2023-02-20T14:25:25;101956.91;;;8.71;100.00
60015;BME280;45867;52.480;6.056;2023-02-20T14:28:13;101938.41;;;8.71;100.00
60015;BME280;45867;52.480;6.056;2023-02-20T14:31:05;101939.22;;;8.71;100.00